Time;durP1;ratioP1;P1;durP2;ratioP2;P2;SDS_P1;SDS_P2;PMS_P1;PMS_P2;Temp;Humidity;BMP_temperature;BMP_pressure;BME280_temperature;BME280_humidity;BME280_pressure;Samples;Min_cycle;Max_cycle;Signal;HPM_P1;HPM_P2
2024/03/29 00:01:16;;;;;;;;;;;;;;;;;;2197565;67;1536;-21
2024/03/29 00:03:46;;;;;;;;;;;;;;;;;;2193386;67;1722;-21
2024/03/29 00:06:19;;;;;;;;;;;;;;;;;;2195433;59;2400;-21
2024/03/29 00:08:49;;;;;;;;;;;;;;;;;;2189397;59;2246;-21
2024/03/29 00:11:19;;;;;;;;;;;;;;;;;;2196156;59;2533;-21
2024/03/29 00:13:49;;;;;;;;;;;;;;;;;;2195753;59;1661;-21
2024/03/29 00:16:22;;;;;;;;;;;;;;;;;;2197066;67;2406;-21
2024/03/29 00:18:52;;;;;;;;;;;;;;;;;;2192666;67;1957;-21
2024/03/29 00:21:22;;;;;;;;;;;;;;;;;;2193373;67;1469;-21
2024/03/29 00:23:52;;;;;;;;;;;;;;;;;;2196880;59;1567;-21
2024/03/29 00:26:23;;;;;;;;;;;;;;;;;;2193533;67;1710;-21
2024/03/29 00:28:53;;;;;;;;;;;;;;;;;;2195934;59;2097;-21
2024/03/29 00:31:23;;;;;;;;;;;;;;;;;;2197001;67;1602;-21
2024/03/29 00:33:53;;;;;;;;;;;;;;;;;;2190955;59;3037;-21
2024/03/29 00:36:23;;;;;;;;;;;;;;;;;;2194690;59;2972;-21
2024/03/29 00:38:54;;;;;;;;;;;;;;;;;;2191842;59;2450;-21
2024/03/29 00:41:24;;;;;;;;;;;;;;;;;;2196261;59;2398;-21
2024/03/29 00:43:54;;;;;;;;;;;;;;;;;;2195527;67;1424;-21
2024/03/29 00:46:25;;;;;;;;;;;;;;;;;;2197281;59;1366;-21
2024/03/29 00:48:55;;;;;;;;;;;;;;;;;;2192576;67;2092;-21
2024/03/29 00:51:25;;;;;;;;;;;;;;;;;;2193339;59;3059;-21
2024/03/29 00:53:55;;;;;;;;;;;;;;;;;;2196572;59;2324;-22
2024/03/29 00:56:25;;;;;;;;;;;;;;;;;;2196145;59;1182;-21
2024/03/29 00:58:56;;;;;;;;;;;;;;;;;;2195412;59;3639;-21
2024/03/29 01:01:26;;;;;;;;;;;;;;;;;;2192012;59;3541;-21
2024/03/29 01:03:56;;;;;;;;;;;;;;;;;;2188610;59;2443;-21
2024/03/29 01:06:29;;;;;;;;;;;;;;;;;;2196286;67;1671;-21
2024/03/29 01:09:00;;;;;;;;;;;;;;;;;;2192858;67;1851;-21
2024/03/29 01:11:30;;;;;;;;;;;;;;;;;;2193785;59;1627;-21
2024/03/29 01:14:01;;;;;;;;;;;;;;;;;;2193340;59;1280;-21
2024/03/29 01:16:31;;;;;;;;;;;;;;;;;;2194348;67;1621;-21
2024/03/29 01:19:01;;;;;;;;;;;;;;;;;;2193616;59;1941;-21
2024/03/29 01:21:34;;;;;;;;;;;;;;;;;;2197005;67;1235;-21
2024/03/29 01:24:04;;;;;;;;;;;;;;;;;;2190344;59;1379;-21
2024/03/29 01:26:34;;;;;;;;;;;;;;;;;;2193693;59;1685;-21
2024/03/29 01:29:06;;;;;;;;;;;;;;;;;;2192836;67;1751;-21
2024/03/29 01:31:36;;;;;;;;;;;;;;;;;;2192866;67;1813;-21
2024/03/29 01:34:06;;;;;;;;;;;;;;;;;;2192899;59;1839;-21
2024/03/29 01:36:37;;;;;;;;;;;;;;;;;;2196750;67;1311;-21
2024/03/29 01:39:08;;;;;;;;;;;;;;;;;;2196477;59;2001;-21
2024/03/29 01:41:38;;;;;;;;;;;;;;;;;;2190752;59;1401;-21
2024/03/29 01:44:08;;;;;;;;;;;;;;;;;;2196429;67;1148;-21
2024/03/29 01:46:39;;;;;;;;;;;;;;;;;;2196569;59;1867;-21
2024/03/29 01:49:09;;;;;;;;;;;;;;;;;;2196453;59;1378;-21
2024/03/29 01:51:40;;;;;;;;;;;;;;;;;;2197179;67;1389;-21
2024/03/29 01:54:11;;;;;;;;;;;;;;;;;;2193649;67;2099;-21
2024/03/29 01:56:42;;;;;;;;;;;;;;;;;;2196733;67;2116;-21
2024/03/29 01:59:17;;;;;;;;;;;;;;;;;;2196917;59;1936;-21
2024/03/29 02:01:48;;;;;;;;;;;;;;;;;;2197595;67;1362;-21
2024/03/29 02:04:18;;;;;;;;;;;;;;;;;;2196936;67;1681;-21
2024/03/29 02:06:49;;;;;;;;;;;;;;;;;;2197741;67;1720;-21
2024/03/29 02:09:19;;;;;;;;;;;;;;;;;;2196831;67;2115;-21
2024/03/29 02:11:51;;;;;;;;;;;;;;;;;;2197482;67;1466;-21
2024/03/29 02:14:21;;;;;;;;;;;;;;;;;;2190485;59;1301;-21
2024/03/29 02:16:51;;;;;;;;;;;;;;;;;;2196851;67;2022;-21
2024/03/29 02:19:21;;;;;;;;;;;;;;;;;;2197347;67;1986;-21
2024/03/29 02:21:53;;;;;;;;;;;;;;;;;;2194000;67;1667;-21
2024/03/29 02:24:23;;;;;;;;;;;;;;;;;;2197126;67;1633;-21
2024/03/29 02:26:56;;;;;;;;;;;;;;;;;;2192886;67;1803;-21
2024/03/29 02:29:27;;;;;;;;;;;;;;;;;;2196765;59;1418;-21
2024/03/29 02:31:57;;;;;;;;;;;;;;;;;;2193500;67;1644;-21
2024/03/29 02:34:27;;;;;;;;;;;;;;;;;;2194182;59;1670;-21
2024/03/29 02:36:58;;;;;;;;;;;;;;;;;;2192034;59;1271;-21
2024/03/29 02:39:29;;;;;;;;;;;;;;;;;;2197272;59;1988;-21
2024/03/29 02:41:59;;;;;;;;;;;;;;;;;;2196647;59;1942;-21
2024/03/29 02:44:29;;;;;;;;;;;;;;;;;;2196949;59;1990;-21
2024/03/29 02:47:00;;;;;;;;;;;;;;;;;;2196954;67;1447;-21
2024/03/29 02:49:30;;;;;;;;;;;;;;;;;;2197710;59;1886;-21
2024/03/29 02:52:00;;;;;;;;;;;;;;;;;;2197048;67;1679;-21
2024/03/29 02:54:30;;;;;;;;;;;;;;;;;;2193696;67;1744;-21
2024/03/29 02:57:00;;;;;;;;;;;;;;;;;;2193622;67;1663;-21
2024/03/29 02:59:31;;;;;;;;;;;;;;;;;;2197796;59;1952;-21
2024/03/29 03:02:01;;;;;;;;;;;;;;;;;;2193476;67;1778;-21
2024/03/29 03:04:31;;;;;;;;;;;;;;;;;;2197222;67;1912;-21
2024/03/29 03:12:43;;;;;;;;;;;;;;;;;;2197756;59;1444;-21
2024/03/29 03:15:13;;;;;;;;;;;;;;;;;;2192993;59;1295;-21
2024/03/29 03:17:43;;;;;;;;;;;;;;;;;;2193798;67;1998;-21
2024/03/29 03:20:16;;;;;;;;;;;;;;;;;;2193754;67;1504;-21
2024/03/29 03:22:46;;;;;;;;;;;;;;;;;;2197266;59;1951;-21
2024/03/29 03:25:16;;;;;;;;;;;;;;;;;;2196307;67;1392;-21
2024/03/29 03:27:47;;;;;;;;;;;;;;;;;;2197543;67;2215;-21
2024/03/29 03:30:17;;;;;;;;;;;;;;;;;;2196623;67;1625;-21
2024/03/29 03:32:47;;;;;;;;;;;;;;;;;;2196738;67;1565;-21
2024/03/29 03:35:17;;;;;;;;;;;;;;;;;;2196556;59;1590;-21
2024/03/29 03:37:49;;;;;;;;;;;;;;;;;;2192521;59;1988;-21
2024/03/29 03:40:19;;;;;;;;;;;;;;;;;;2193306;59;1737;-21
2024/03/29 03:42:50;;;;;;;;;;;;;;;;;;2194111;67;1344;-21
2024/03/29 03:45:20;;;;;;;;;;;;;;;;;;2196857;59;1858;-21
2024/03/29 03:47:50;;;;;;;;;;;;;;;;;;2197351;67;2171;-21
2024/03/29 03:50:20;;;;;;;;;;;;;;;;;;2197057;59;1466;-21
2024/03/29 03:52:51;;;;;;;;;;;;;;;;;;2194236;67;1498;-21
2024/03/29 03:55:21;;;;;;;;;;;;;;;;;;2197230;67;1758;-21
2024/03/29 03:57:52;;;;;;;;;;;;;;;;;;2193284;67;2036;-21
2024/03/29 04:00:22;;;;;;;;;;;;;;;;;;2197290;59;1355;-21
2024/03/29 04:02:53;;;;;;;;;;;;;;;;;;2193508;67;1464;-21
2024/03/29 04:05:24;;;;;;;;;;;;;;;;;;2196253;67;1524;-21
2024/03/29 04:07:55;;;;;;;;;;;;;;;;;;2197019;67;1293;-21
2024/03/29 04:10:25;;;;;;;;;;;;;;;;;;2196581;67;1223;-21
2024/03/29 04:12:55;;;;;;;;;;;;;;;;;;2196214;59;1411;-21
2024/03/29 04:15:25;;;;;;;;;;;;;;;;;;2193374;59;1816;-21
2024/03/29 04:17:56;;;;;;;;;;;;;;;;;;2196930;67;1986;-21
2024/03/29 04:20:26;;;;;;;;;;;;;;;;;;2196467;59;1741;-21
2024/03/29 04:22:56;;;;;;;;;;;;;;;;;;2193925;59;2690;-21
2024/03/29 04:25:26;;;;;;;;;;;;;;;;;;2196583;67;1510;-21
2024/03/29 04:27:57;;;;;;;;;;;;;;;;;;2196816;67;1779;-21
2024/03/29 04:30:27;;;;;;;;;;;;;;;;;;2190307;67;1792;-22
2024/03/29 04:32:57;;;;;;;;;;;;;;;;;;2196712;67;1339;-22
2024/03/29 04:35:27;;;;;;;;;;;;;;;;;;2193469;59;1780;-22
2024/03/29 04:37:57;;;;;;;;;;;;;;;;;;2197179;59;1933;-22
2024/03/29 04:40:28;;;;;;;;;;;;;;;;;;2192571;59;2828;-22
2024/03/29 04:42:58;;;;;;;;;;;;;;;;;;2195984;67;1772;-22
2024/03/29 04:45:28;;;;;;;;;;;;;;;;;;2196525;59;1353;-22
2024/03/29 04:47:58;;;;;;;;;;;;;;;;;;2197115;67;1306;-22
2024/03/29 04:50:29;;;;;;;;;;;;;;;;;;2196519;59;1638;-22
2024/03/29 04:52:59;;;;;;;;;;;;;;;;;;2193092;67;1478;-22
2024/03/29 04:55:29;;;;;;;;;;;;;;;;;;2197250;67;1480;-22
2024/03/29 04:57:59;;;;;;;;;;;;;;;;;;2191487;67;2013;-22
2024/03/29 05:00:30;;;;;;;;;;;;;;;;;;2191083;59;3065;-22
2024/03/29 05:03:00;;;;;;;;;;;;;;;;;;2196904;67;1646;-22
2024/03/29 05:05:30;;;;;;;;;;;;;;;;;;2194719;59;1237;-22
2024/03/29 05:08:00;;;;;;;;;;;;;;;;;;2195832;67;1522;-22
2024/03/29 05:10:31;;;;;;;;;;;;;;;;;;2196614;67;1253;-22
2024/03/29 05:13:01;;;;;;;;;;;;;;;;;;2196549;67;1393;-22
2024/03/29 05:15:31;;;;;;;;;;;;;;;;;;2194970;67;1564;-22
2024/03/29 05:18:02;;;;;;;;;;;;;;;;;;2194773;67;1928;-22
2024/03/29 05:20:32;;;;;;;;;;;;;;;;;;2194786;67;1602;-22
2024/03/29 05:23:02;;;;;;;;;;;;;;;;;;2197717;59;1725;-22
2024/03/29 05:25:33;;;;;;;;;;;;;;;;;;2194362;67;1271;-22
2024/03/29 05:28:05;;;;;;;;;;;;;;;;;;2197180;67;1150;-22
2024/03/29 05:30:36;;;;;;;;;;;;;;;;;;2197564;67;1233;-22
2024/03/29 05:33:06;;;;;;;;;;;;;;;;;;2196569;59;1823;-22
2024/03/29 05:35:36;;;;;;;;;;;;;;;;;;2193692;67;1251;-22
2024/03/29 05:38:07;;;;;;;;;;;;;;;;;;2196387;59;1933;-22
2024/03/29 05:40:37;;;;;;;;;;;;;;;;;;2194151;59;1783;-22
2024/03/29 05:43:08;;;;;;;;;;;;;;;;;;2193197;67;1490;-22
2024/03/29 05:45:38;;;;;;;;;;;;;;;;;;2196292;59;1206;-22
2024/03/29 05:48:08;;;;;;;;;;;;;;;;;;2196746;67;1244;-22
2024/03/29 05:50:38;;;;;;;;;;;;;;;;;;2193845;59;3180;-23
2024/03/29 05:53:08;;;;;;;;;;;;;;;;;;2193230;67;1548;-22
2024/03/29 05:55:39;;;;;;;;;;;;;;;;;;2196688;67;1472;-22
2024/03/29 05:58:09;;;;;;;;;;;;;;;;;;2195654;67;1938;-22
2024/03/29 06:00:40;;;;;;;;;;;;;;;;;;2197655;59;1561;-22
2024/03/29 06:03:10;;;;;;;;;;;;;;;;;;2196141;67;1247;-22
2024/03/29 06:05:40;;;;;;;;;;;;;;;;;;2192702;67;1372;-22
2024/03/29 06:08:11;;;;;;;;;;;;;;;;;;2195563;67;1497;-22
2024/03/29 06:10:41;;;;;;;;;;;;;;;;;;2196901;67;1654;-22
2024/03/29 06:13:27;;;;;;;;;;;;;;;;;;2197594;60;1770;-22
2024/03/29 06:18:46;;;;;;;;;;;;;;;;;;2193816;67;1950;-22
2024/03/29 06:21:17;;;;;;;;;;;;;;;;;;2192842;67;2193;-22
2024/03/29 06:23:47;;;;;;;;;;;;;;;;;;2191423;59;1985;-22
2024/03/29 06:26:17;;;;;;;;;;;;;;;;;;2192359;67;1361;-22
2024/03/29 06:28:47;;;;;;;;;;;;;;;;;;2197331;67;1404;-22
2024/03/29 06:31:18;;;;;;;;;;;;;;;;;;2196546;67;1400;-21
2024/03/29 06:33:48;;;;;;;;;;;;;;;;;;2193939;59;1740;-21
2024/03/29 06:36:18;;;;;;;;;;;;;;;;;;2196380;67;1147;-21
2024/03/29 06:38:48;;;;;;;;;;;;;;;;;;2197708;59;1925;-21
2024/03/29 06:41:18;;;;;;;;;;;;;;;;;;2192923;59;1831;-21
2024/03/29 06:43:49;;;;;;;;;;;;;;;;;;2194116;67;2101;-21
2024/03/29 06:46:19;;;;;;;;;;;;;;;;;;2192611;59;1412;-22
2024/03/29 06:48:49;;;;;;;;;;;;;;;;;;2200517;53;2808;-25
2024/03/29 06:51:19;;;;;;;;;;;;;;;;;;2197350;59;1859;-25
2024/03/29 06:53:50;;;;;;;;;;;;;;;;;;2201278;59;2262;-25
2024/03/29 06:56:20;;;;;;;;;;;;;;;;;;2199475;59;2382;-25
2024/03/29 06:58:50;;;;;;;;;;;;;;;;;;2199749;59;3035;-25
2024/03/29 07:01:20;;;;;;;;;;;;;;;;;;2196451;67;2161;-23
2024/03/29 07:03:51;;;;;;;;;;;;;;;;;;2201415;67;1987;-23
2024/03/29 07:06:21;;;;;;;;;;;;;;;;;;2199139;59;1967;-23
2024/03/29 07:08:51;;;;;;;;;;;;;;;;;;2199574;67;2001;-23
2024/03/29 07:11:21;;;;;;;;;;;;;;;;;;2198827;59;2346;-22
2024/03/29 07:13:51;;;;;;;;;;;;;;;;;;2198351;59;1840;-23
2024/03/29 07:16:22;;;;;;;;;;;;;;;;;;2198462;59;2867;-23
2024/03/29 07:18:52;;;;;;;;;;;;;;;;;;2199331;59;2414;-23
2024/03/29 07:21:22;;;;;;;;;;;;;;;;;;2198620;59;2094;-23
2024/03/29 07:23:52;;;;;;;;;;;;;;;;;;2199352;59;1898;-23
2024/03/29 07:26:23;;;;;;;;;;;;;;;;;;2198852;59;2206;-23
2024/03/29 07:28:53;;;;;;;;;;;;;;;;;;2199237;59;1679;-24
2024/03/29 07:31:23;;;;;;;;;;;;;;;;;;2198780;59;2136;-23
2024/03/29 07:33:54;;;;;;;;;;;;;;;;;;2199500;59;2736;-23
2024/03/29 07:36:26;;;;;;;;;;;;;;;;;;2199016;59;1725;-23
2024/03/29 07:38:59;;;;;;;;;;;;;;;;;;2199505;59;2027;-23
2024/03/29 07:41:30;;;;;;;;;;;;;;;;;;2198973;59;2014;-23
2024/03/29 07:44:03;;;;;;;;;;;;;;;;;;2199369;67;2421;-23
2024/03/29 07:46:34;;;;;;;;;;;;;;;;;;2199353;59;1784;-24
2024/03/29 07:49:04;;;;;;;;;;;;;;;;;;2199290;59;2320;-23
2024/03/29 07:51:34;;;;;;;;;;;;;;;;;;2203088;59;1945;-24
2024/03/29 07:54:04;;;;;;;;;;;;;;;;;;2198469;67;2459;-23
2024/03/29 07:56:35;;;;;;;;;;;;;;;;;;2198039;67;1981;-23
2024/03/29 07:59:05;;;;;;;;;;;;;;;;;;2197899;59;2133;-23
2024/03/29 08:01:35;;;;;;;;;;;;;;;;;;2198387;59;2084;-23
2024/03/29 08:04:05;;;;;;;;;;;;;;;;;;2198306;67;1862;-24
2024/03/29 08:06:36;;;;;;;;;;;;;;;;;;2198237;59;1957;-23
2024/03/29 08:09:06;;;;;;;;;;;;;;;;;;2199102;67;2013;-23
2024/03/29 08:11:36;;;;;;;;;;;;;;;;;;2200020;59;2077;-23
2024/03/29 08:14:07;;;;;;;;;;;;;;;;;;2198397;59;1643;-23
2024/03/29 08:16:37;;;;;;;;;;;;;;;;;;2198598;59;2409;-23
2024/03/29 08:19:08;;;;;;;;;;;;;;;;;;2198729;67;1994;-23
2024/03/29 08:21:38;;;;;;;;;;;;;;;;;;2198405;59;1873;-23
2024/03/29 08:24:09;;;;;;;;;;;;;;;;;;2198898;59;2219;-23
2024/03/29 08:26:39;;;;;;;;;;;;;;;;;;2196776;59;2496;-23
2024/03/29 08:29:09;;;;;;;;;;;;;;;;;;2197689;59;2305;-23
2024/03/29 08:31:39;;;;;;;;;;;;;;;;;;2198130;67;2419;-23
2024/03/29 08:34:13;;;;;;;;;;;;;;;;;;2198609;59;2135;-23
2024/03/29 08:36:43;;;;;;;;;;;;;;;;;;2198041;59;1787;-23
2024/03/29 08:39:13;;;;;;;;;;;;;;;;;;2197952;59;2172;-23
2024/03/29 08:41:44;;;;;;;;;;;;;;;;;;2198718;59;3369;-23
2024/03/29 08:44:14;;;;;;;;;;;;;;;;;;2198292;59;2224;-23
2024/03/29 08:46:45;;;;;;;;;;;;;;;;;;2198407;59;2348;-24
2024/03/29 08:49:15;;;;;;;;;;;;;;;;;;2196570;59;3812;-23
2024/03/29 08:51:46;;;;;;;;;;;;;;;;;;2198753;60;2268;-23
2024/03/29 08:54:16;;;;;;;;;;;;;;;;;;2198647;59;2613;-23
2024/03/29 08:56:47;;;;;;;;;;;;;;;;;;2198223;59;2277;-23
2024/03/29 08:59:18;;;;;;;;;;;;;;;;;;2196293;59;2799;-23
2024/03/29 09:01:49;;;;;;;;;;;;;;;;;;2197769;59;2793;-23
2024/03/29 09:04:19;;;;;;;;;;;;;;;;;;2196885;59;2808;-23
2024/03/29 09:06:49;;;;;;;;;;;;;;;;;;2198245;59;2514;-23
2024/03/29 09:09:20;;;;;;;;;;;;;;;;;;2198305;59;2686;-23
2024/03/29 09:11:50;;;;;;;;;;;;;;;;;;2198099;59;2418;-23
2024/03/29 09:14:21;;;;;;;;;;;;;;;;;;2197228;59;3885;-23
2024/03/29 09:16:51;;;;;;;;;;;;;;;;;;2199110;59;4003;-23
2024/03/29 09:19:22;;;;;;;;;;;;;;;;;;2196814;59;2284;-24
2024/03/29 09:21:52;;;;;;;;;;;;;;;;;;2196303;59;2290;-24
2024/03/29 09:24:22;;;;;;;;;;;;;;;;;;2197618;59;1745;-24
2024/03/29 09:26:52;;;;;;;;;;;;;;;;;;2197780;59;1853;-24
2024/03/29 09:29:22;;;;;;;;;;;;;;;;;;2196178;67;2058;-24
2024/03/29 09:31:53;;;;;;;;;;;;;;;;;;2197777;59;2289;-24
2024/03/29 09:34:23;;;;;;;;;;;;;;;;;;2197482;59;2395;-24
2024/03/29 09:36:53;;;;;;;;;;;;;;;;;;2197172;59;2120;-24
2024/03/29 09:39:23;;;;;;;;;;;;;;;;;;2197282;59;2511;-24
2024/03/29 09:41:55;;;;;;;;;;;;;;;;;;2198573;59;1854;-24
2024/03/29 09:44:31;;;;;;;;;;;;;;;;;;2198891;59;1966;-24
2024/03/29 09:47:02;;;;;;;;;;;;;;;;;;2197814;59;2489;-24
2024/03/29 09:49:33;;;;;;;;;;;;;;;;;;2197985;59;1938;-24
2024/03/29 09:52:04;;;;;;;;;;;;;;;;;;2197678;59;1829;-24
2024/03/29 09:54:34;;;;;;;;;;;;;;;;;;2197679;67;2177;-24
2024/03/29 09:57:05;;;;;;;;;;;;;;;;;;2198303;67;2987;-24
2024/03/29 09:59:37;;;;;;;;;;;;;;;;;;2197289;59;1917;-24
2024/03/29 10:02:17;;;;;;;;;;;;;;;;;;2198286;67;2083;-24
2024/03/29 10:04:48;;;;;;;;;;;;;;;;;;2198771;59;1914;-24
2024/03/29 10:07:19;;;;;;;;;;;;;;;;;;2197328;59;2633;-24
2024/03/29 10:09:50;;;;;;;;;;;;;;;;;;2197950;59;2312;-24
2024/03/29 10:12:21;;;;;;;;;;;;;;;;;;2198271;59;2000;-24
2024/03/29 10:15:38;;;;;;;;;;;;;;;;;;2198619;59;1903;-24
2024/03/29 10:17:45;;;;;;;;;;;;;;;;;;2198059;60;1941;-24
2024/03/29 10:20:17;;;;;;;;;;;;;;;;;;2201026;59;1974;-24
2024/03/29 10:22:47;;;;;;;;;;;;;;;;;;2199936;59;3334;-24
2024/03/29 10:25:19;;;;;;;;;;;;;;;;;;2199013;59;2475;-24
2024/03/29 10:27:49;;;;;;;;;;;;;;;;;;2200227;59;1810;-24
2024/03/29 10:30:21;;;;;;;;;;;;;;;;;;2198510;67;1825;-24
2024/03/29 10:32:51;;;;;;;;;;;;;;;;;;2200432;67;1773;-24
2024/03/29 10:35:21;;;;;;;;;;;;;;;;;;2197659;59;2086;-24
2024/03/29 10:37:52;;;;;;;;;;;;;;;;;;2199190;59;1953;-33
2024/03/29 10:40:24;;;;;;;;;;;;;;;;;;2198127;59;1894;-24
2024/03/29 10:42:55;;;;;;;;;;;;;;;;;;2198676;59;2196;-24
2024/03/29 10:45:26;;;;;;;;;;;;;;;;;;2197151;59;1798;-24
2024/03/29 10:47:57;;;;;;;;;;;;;;;;;;2198370;59;2469;-24
2024/03/29 10:50:28;;;;;;;;;;;;;;;;;;2197521;59;2045;-24
2024/03/29 10:53:00;;;;;;;;;;;;;;;;;;2199334;67;2104;-24
2024/03/29 10:55:32;;;;;;;;;;;;;;;;;;2197283;59;2308;-24
2024/03/29 10:58:04;;;;;;;;;;;;;;;;;;2199158;59;2520;-24
2024/03/29 11:00:40;;;;;;;;;;;;;;;;;;2195909;59;2034;-24
2024/03/29 11:03:27;;;;;;;;;;;;;;;;;;2198375;67;2314;-24
2024/03/29 11:06:02;;;;;;;;;;;;;;;;;;2197936;61;1755;-24
2024/03/29 11:08:34;;;;;;;;;;;;;;;;;;2197518;67;1964;-24
2024/03/29 11:11:08;;;;;;;;;;;;;;;;;;2198977;67;2006;-24
2024/03/29 11:14:02;;;;;;;;;;;;;;;;;;2196742;59;2729;-24
2024/03/29 11:16:32;;;;;;;;;;;;;;;;;;2195659;67;2100;-24
2024/03/29 11:19:05;;;;;;;;;;;;;;;;;;2198516;59;2581;-22
2024/03/29 11:21:35;;;;;;;;;;;;;;;;;;2197525;60;1853;-24
2024/03/29 11:24:05;;;;;;;;;;;;;;;;;;2198085;59;1847;-24
2024/03/29 11:26:36;;;;;;;;;;;;;;;;;;2197628;59;1836;-24
2024/03/29 11:29:06;;;;;;;;;;;;;;;;;;2199318;67;3598;-22
2024/03/29 11:31:38;;;;;;;;;;;;;;;;;;2196843;67;2098;-24
2024/03/29 11:34:09;;;;;;;;;;;;;;;;;;2197530;59;2692;-24
2024/03/29 11:36:39;;;;;;;;;;;;;;;;;;2199750;67;1847;-24
2024/03/29 11:39:19;;;;;;;;;;;;;;;;;;2199106;59;2114;-24
2024/03/29 11:41:50;;;;;;;;;;;;;;;;;;2198049;59;1954;-22
2024/03/29 11:44:21;;;;;;;;;;;;;;;;;;2196979;59;2421;-24
2024/03/29 11:46:51;;;;;;;;;;;;;;;;;;2196740;59;1932;-24
2024/03/29 11:49:22;;;;;;;;;;;;;;;;;;2196851;59;2456;-22
2024/03/29 11:52:01;;;;;;;;;;;;;;;;;;2198036;59;3000;-24
2024/03/29 11:54:38;;;;;;;;;;;;;;;;;;2196584;59;2829;-24
2024/03/29 11:57:08;;;;;;;;;;;;;;;;;;2194520;59;2299;-24
2024/03/29 11:59:39;;;;;;;;;;;;;;;;;;2196418;59;2695;-24
2024/03/29 12:02:12;;;;;;;;;;;;;;;;;;2197622;59;1887;-24
2024/03/29 12:04:46;;;;;;;;;;;;;;;;;;2197923;59;2249;-24
2024/03/29 12:07:16;;;;;;;;;;;;;;;;;;2198152;59;1974;-24
2024/03/29 12:09:46;;;;;;;;;;;;;;;;;;2196800;59;2391;-24
2024/03/29 12:12:17;;;;;;;;;;;;;;;;;;2197616;67;1839;-24
2024/03/29 12:14:48;;;;;;;;;;;;;;;;;;2197813;59;2052;-24
2024/03/29 12:17:18;;;;;;;;;;;;;;;;;;2197633;67;1966;-24
2024/03/29 12:19:49;;;;;;;;;;;;;;;;;;2196983;59;1998;-24
2024/03/29 12:22:19;;;;;;;;;;;;;;;;;;2199119;67;2033;-24
2024/03/29 12:24:49;;;;;;;;;;;;;;;;;;2200522;59;1826;-24
2024/03/29 12:27:22;;;;;;;;;;;;;;;;;;2197571;67;1893;-24
2024/03/29 12:29:52;;;;;;;;;;;;;;;;;;2197786;67;2669;-24
2024/03/29 12:32:23;;;;;;;;;;;;;;;;;;2197196;67;2003;-24
2024/03/29 12:34:54;;;;;;;;;;;;;;;;;;2198444;59;2520;-24
2024/03/29 12:37:28;;;;;;;;;;;;;;;;;;2197359;59;2670;-24
2024/03/29 12:39:59;;;;;;;;;;;;;;;;;;2199968;59;2014;-24
2024/03/29 12:42:30;;;;;;;;;;;;;;;;;;2197594;59;1648;-24
2024/03/29 12:45:01;;;;;;;;;;;;;;;;;;2195731;59;1956;-24
2024/03/29 12:47:33;;;;;;;;;;;;;;;;;;2197731;59;1839;-24
2024/03/29 12:50:03;;;;;;;;;;;;;;;;;;2200060;53;3589;-22
2024/03/29 12:52:40;;;;;;;;;;;;;;;;;;2197916;59;2245;-22
2024/03/29 12:55:11;;;;;;;;;;;;;;;;;;2198040;59;1750;-22
2024/03/29 12:57:43;;;;;;;;;;;;;;;;;;2193736;67;1996;-22
2024/03/29 13:00:14;;;;;;;;;;;;;;;;;;2197595;59;1826;-22
2024/03/29 13:02:44;;;;;;;;;;;;;;;;;;2194911;67;1868;-22
2024/03/29 13:05:15;;;;;;;;;;;;;;;;;;2195398;67;2258;-22
2024/03/29 13:07:45;;;;;;;;;;;;;;;;;;2194531;59;1842;-22
2024/03/29 13:10:19;;;;;;;;;;;;;;;;;;2194809;59;1639;-22
2024/03/29 13:12:50;;;;;;;;;;;;;;;;;;2194037;59;2095;-22
2024/03/29 13:15:21;;;;;;;;;;;;;;;;;;2195515;59;1721;-22
2024/03/29 13:17:52;;;;;;;;;;;;;;;;;;2192801;67;1933;-21
2024/03/29 13:20:23;;;;;;;;;;;;;;;;;;2194729;59;2948;-22
2024/03/29 13:22:55;;;;;;;;;;;;;;;;;;2195338;59;1740;-22
2024/03/29 13:25:25;;;;;;;;;;;;;;;;;;2195215;59;2252;-22
2024/03/29 13:27:56;;;;;;;;;;;;;;;;;;2194532;63;2614;-22
2024/03/29 13:30:26;;;;;;;;;;;;;;;;;;2194130;67;1966;-21
2024/03/29 13:32:57;;;;;;;;;;;;;;;;;;2194454;67;2359;-21
2024/03/29 13:35:28;;;;;;;;;;;;;;;;;;2193956;59;2413;-22
2024/03/29 13:37:58;;;;;;;;;;;;;;;;;;2193766;59;2502;-22
2024/03/29 13:40:29;;;;;;;;;;;;;;;;;;2194358;59;1808;-21
2024/03/29 13:42:59;;;;;;;;;;;;;;;;;;2191799;67;1963;-22
2024/03/29 13:45:30;;;;;;;;;;;;;;;;;;2193202;67;1853;-21
2024/03/29 13:48:00;;;;;;;;;;;;;;;;;;2194848;67;2251;-22
2024/03/29 13:50:30;;;;;;;;;;;;;;;;;;2194744;59;2130;-22
2024/03/29 13:53:00;;;;;;;;;;;;;;;;;;2195715;67;1966;-22
2024/03/29 13:55:31;;;;;;;;;;;;;;;;;;2194703;67;1772;-22
2024/03/29 13:58:02;;;;;;;;;;;;;;;;;;2195582;67;2000;-22
2024/03/29 14:00:33;;;;;;;;;;;;;;;;;;2194597;59;2997;-22
2024/03/29 14:03:03;;;;;;;;;;;;;;;;;;2197037;59;2746;-21
2024/03/29 14:05:33;;;;;;;;;;;;;;;;;;2193240;67;2252;-21
2024/03/29 14:08:04;;;;;;;;;;;;;;;;;;2194619;67;1827;-21
2024/03/29 14:10:35;;;;;;;;;;;;;;;;;;2193734;59;2548;-21
2024/03/29 14:13:06;;;;;;;;;;;;;;;;;;2193928;59;2509;-21
2024/03/29 14:15:36;;;;;;;;;;;;;;;;;;2193539;59;1874;-21
2024/03/29 14:18:06;;;;;;;;;;;;;;;;;;2191493;67;2680;-22
2024/03/29 14:20:36;;;;;;;;;;;;;;;;;;2193384;59;1904;-21
2024/03/29 14:23:10;;;;;;;;;;;;;;;;;;2194765;67;2396;-22
2024/03/29 14:25:40;;;;;;;;;;;;;;;;;;2190774;59;2130;-21
2024/03/29 14:28:10;;;;;;;;;;;;;;;;;;2191581;67;2008;-22
2024/03/29 14:30:41;;;;;;;;;;;;;;;;;;2193303;67;2118;-21
2024/03/29 14:33:11;;;;;;;;;;;;;;;;;;2194398;59;2031;-21
2024/03/29 14:35:41;;;;;;;;;;;;;;;;;;2193366;59;1906;-22
2024/03/29 14:38:13;;;;;;;;;;;;;;;;;;2194429;59;2005;-22
2024/03/29 14:40:44;;;;;;;;;;;;;;;;;;2193094;59;2184;-22
2024/03/29 14:43:14;;;;;;;;;;;;;;;;;;2193621;67;2463;-21
2024/03/29 14:45:44;;;;;;;;;;;;;;;;;;2193596;59;2035;-22
2024/03/29 14:48:15;;;;;;;;;;;;;;;;;;2193928;59;1812;-21
2024/03/29 14:50:46;;;;;;;;;;;;;;;;;;2192581;59;1880;-22
2024/03/29 14:53:16;;;;;;;;;;;;;;;;;;2191365;67;2052;-21
2024/03/29 14:55:46;;;;;;;;;;;;;;;;;;2193333;67;2140;-21
2024/03/29 14:58:16;;;;;;;;;;;;;;;;;;2191521;59;2312;-22
2024/03/29 15:00:48;;;;;;;;;;;;;;;;;;2192265;67;1794;-22
2024/03/29 15:03:18;;;;;;;;;;;;;;;;;;2194520;67;1890;-21
2024/03/29 15:05:48;;;;;;;;;;;;;;;;;;2193206;67;1717;-21
2024/03/29 15:08:18;;;;;;;;;;;;;;;;;;2194314;59;1950;-21
2024/03/29 15:10:58;;;;;;;;;;;;;;;;;;2193257;67;1800;-21
2024/03/29 15:13:31;;;;;;;;;;;;;;;;;;2194921;59;2064;-21
2024/03/29 15:16:02;;;;;;;;;;;;;;;;;;2193169;59;2338;-22
2024/03/29 15:18:32;;;;;;;;;;;;;;;;;;2192989;67;2010;-21
2024/03/29 15:21:08;;;;;;;;;;;;;;;;;;2193569;67;1873;-21
2024/03/29 15:23:38;;;;;;;;;;;;;;;;;;2193881;59;3215;-21
2024/03/29 15:26:08;;;;;;;;;;;;;;;;;;2197579;67;2007;-21
2024/03/29 15:31:28;;;;;;;;;;;;;;;;;;2194426;67;1860;-21
2024/03/29 15:33:58;;;;;;;;;;;;;;;;;;2193159;67;2103;-21
2024/03/29 15:36:28;;;;;;;;;;;;;;;;;;2193671;67;2263;-21
2024/03/29 15:39:05;;;;;;;;;;;;;;;;;;2192586;59;2217;-21
2024/03/29 15:41:36;;;;;;;;;;;;;;;;;;2192210;67;2063;-21
2024/03/29 15:44:09;;;;;;;;;;;;;;;;;;2193326;67;1873;-22
2024/03/29 15:46:40;;;;;;;;;;;;;;;;;;2192096;59;1840;-21
2024/03/29 15:49:10;;;;;;;;;;;;;;;;;;2193940;67;1913;-21
2024/03/29 15:51:41;;;;;;;;;;;;;;;;;;2192191;59;1873;-21
2024/03/29 15:54:16;;;;;;;;;;;;;;;;;;2193812;67;1809;-22
2024/03/29 15:56:47;;;;;;;;;;;;;;;;;;2192540;67;1848;-21
2024/03/29 15:59:17;;;;;;;;;;;;;;;;;;2193692;59;1941;-21
2024/03/29 16:01:47;;;;;;;;;;;;;;;;;;2193120;67;1868;-21
2024/03/29 16:04:20;;;;;;;;;;;;;;;;;;2192949;67;1925;-21
2024/03/29 16:06:51;;;;;;;;;;;;;;;;;;2193150;59;1989;-21
2024/03/29 16:09:21;;;;;;;;;;;;;;;;;;2193785;59;1928;-21
2024/03/29 16:11:51;;;;;;;;;;;;;;;;;;2191646;67;1816;-21
2024/03/29 16:14:23;;;;;;;;;;;;;;;;;;2193360;59;1792;-21
2024/03/29 16:16:53;;;;;;;;;;;;;;;;;;2192017;67;1841;-21
2024/03/29 16:19:23;;;;;;;;;;;;;;;;;;2193390;59;1942;-22
2024/03/29 16:21:53;;;;;;;;;;;;;;;;;;2193149;67;2011;-21
2024/03/29 16:24:23;;;;;;;;;;;;;;;;;;2194305;67;1874;-21
2024/03/29 16:26:53;;;;;;;;;;;;;;;;;;2192836;59;2063;-21
2024/03/29 16:29:24;;;;;;;;;;;;;;;;;;2193817;59;2019;-21
2024/03/29 16:31:54;;;;;;;;;;;;;;;;;;2193433;59;2184;-21
2024/03/29 16:34:24;;;;;;;;;;;;;;;;;;2193464;59;1998;-22
2024/03/29 16:36:54;;;;;;;;;;;;;;;;;;2190387;59;2309;-22
2024/03/29 16:39:25;;;;;;;;;;;;;;;;;;2194270;59;2156;-22
2024/03/29 16:41:56;;;;;;;;;;;;;;;;;;2192985;59;2232;-22
2024/03/29 16:44:27;;;;;;;;;;;;;;;;;;2193535;67;1866;-22
2024/03/29 16:46:57;;;;;;;;;;;;;;;;;;2191830;67;1859;-22
2024/03/29 16:49:27;;;;;;;;;;;;;;;;;;2193747;67;1912;-22
2024/03/29 16:51:57;;;;;;;;;;;;;;;;;;2192130;59;2494;-22
2024/03/29 16:54:28;;;;;;;;;;;;;;;;;;2194002;59;1915;-22
2024/03/29 16:56:58;;;;;;;;;;;;;;;;;;2191666;67;2030;-22
2024/03/29 16:59:28;;;;;;;;;;;;;;;;;;2190997;67;1956;-22
2024/03/29 17:02:00;;;;;;;;;;;;;;;;;;2192424;67;1897;-22
2024/03/29 17:04:30;;;;;;;;;;;;;;;;;;2193193;67;1874;-22
2024/03/29 17:07:01;;;;;;;;;;;;;;;;;;2190089;67;2694;-22
2024/03/29 17:09:37;;;;;;;;;;;;;;;;;;2193299;67;1870;-22
2024/03/29 17:12:07;;;;;;;;;;;;;;;;;;2192677;67;1844;-22
2024/03/29 17:14:38;;;;;;;;;;;;;;;;;;2194222;59;1868;-21
2024/03/29 17:17:08;;;;;;;;;;;;;;;;;;2193179;67;1802;-21
2024/03/29 17:19:38;;;;;;;;;;;;;;;;;;2194279;59;1955;-21
2024/03/29 17:22:09;;;;;;;;;;;;;;;;;;2192770;67;2438;-22
2024/03/29 17:24:39;;;;;;;;;;;;;;;;;;2193364;59;1908;-21
2024/03/29 17:27:09;;;;;;;;;;;;;;;;;;2192175;67;1912;-21
2024/03/29 17:29:39;;;;;;;;;;;;;;;;;;2193379;67;1911;-21
2024/03/29 17:32:11;;;;;;;;;;;;;;;;;;2192979;67;2588;-21
2024/03/29 17:34:41;;;;;;;;;;;;;;;;;;2192527;59;1996;-21
2024/03/29 17:37:11;;;;;;;;;;;;;;;;;;2192663;59;1910;-21
2024/03/29 17:39:41;;;;;;;;;;;;;;;;;;2193428;59;2258;-21